Time;durP1;ratioP1;P1;durP2;ratioP2;P2;SDS_P1;SDS_P2;PMS_P1;PMS_P2;Temp;Humidity;BMP_temperature;BMP_pressure;BME280_temperature;BME280_humidity;BME280_pressure;Samples;Min_cycle;Max_cycle;Signal;HPM_P1;HPM_P2
2023/04/19 00:02:17;;;;;;;5.20;4.27;;;15.10;55.30;;;;;;6127040;23;20403;-67
2023/04/19 00:04:46;;;;;;;4.50;4.00;;;15.10;55.30;;;;;;6126827;23;20195;-67
2023/04/19 00:07:16;;;;;;;4.40;3.70;;;15.10;55.30;;;;;;6126632;23;20377;-67
2023/04/19 00:09:41;;;;;;;5.20;4.27;;;15.10;55.30;;;;;;6127140;23;20424;-67
2023/04/19 00:12:07;;;;;;;4.37;3.97;;;15.10;55.30;;;;;;6100971;23;20385;-67
2023/04/19 00:14:32;;;;;;;4.10;3.70;;;15.10;55.20;;;;;;6126753;23;20566;-67
2023/04/19 00:16:58;;;;;;;4.30;3.90;;;15.10;55.20;;;;;;6126959;23;20176;-67
2023/04/19 00:19:24;;;;;;;4.23;3.70;;;15.10;55.20;;;;;;6126788;23;20145;-67
2023/04/19 00:21:50;;;;;;;4.30;3.50;;;15.10;55.20;;;;;;6100479;23;20591;-67
2023/04/19 00:24:17;;;;;;;4.63;3.63;;;15.10;55.20;;;;;;6126424;23;20400;-67
2023/04/19 00:26:43;;;;;;;4.50;3.70;;;15.10;55.20;;;;;;6126577;23;20160;-67
2023/04/19 00:29:09;;;;;;;4.90;4.00;;;15.10;55.20;;;;;;6126585;23;20377;-67
2023/04/19 00:31:35;;;;;;;3.93;3.53;;;15.10;55.20;;;;;;6126867;23;20408;-67
2023/04/19 00:34:00;;;;;;;4.50;4.10;;;15.10;55.20;;;;;;6126402;23;20397;-67
2023/04/19 00:36:26;;;;;;;4.10;3.70;;;15.10;55.20;;;;;;6126527;23;20177;-67
2023/04/19 00:38:51;;;;;;;4.60;3.63;;;15.10;55.10;;;;;;6126671;23;20487;-67
2023/04/19 00:41:17;;;;;;;4.37;3.70;;;15.10;55.10;;;;;;6126790;23;20187;-67
2023/04/19 00:43:45;;;;;;;4.73;4.27;;;15.10;55.10;;;;;;6126140;23;20193;-67
2023/04/19 00:46:11;;;;;;;4.23;3.50;;;15.10;55.20;;;;;;6126398;23;20156;-67
2023/04/19 00:48:37;;;;;;;4.90;4.00;;;15.10;55.10;;;;;;6126577;23;20368;-67
2023/04/19 00:51:03;;;;;;;4.40;3.80;;;15.10;55.10;;;;;;6126716;23;20381;-67
2023/04/19 00:53:29;;;;;;;4.90;3.77;;;15.10;55.10;;;;;;6126269;23;20176;-67
2023/04/19 00:55:58;;;;;;;3.70;3.00;;;15.10;55.10;;;;;;6126432;23;20373;-67
2023/04/19 00:58:24;;;;;;;4.20;3.40;;;15.10;55.10;;;;;;6126846;23;20377;-67
2023/04/19 01:00:51;;;;;;;4.10;3.70;;;15.10;55.10;;;;;;6126349;23;20372;-67
2023/04/19 01:03:17;;;;;;;3.80;3.40;;;15.10;55.10;;;;;;6126266;23;20653;-67
2023/04/19 01:05:42;;;;;;;4.20;3.30;;;15.10;55.10;;;;;;6126385;23;20432;-67
2023/04/19 01:08:08;;;;;;;6.10;4.00;;;15.10;55.10;;;;;;6126419;23;20377;-67
2023/04/19 01:10:33;;;;;;;6.07;3.70;;;15.10;55.10;;;;;;6126404;23;20145;-67
2023/04/19 01:12:59;;;;;;;4.17;3.60;;;15.10;55.10;;;;;;6126331;23;20169;-68
2023/04/19 01:15:25;;;;;;;4.50;3.50;;;15.10;55.10;;;;;;6126446;23;20149;-68
2023/04/19 01:17:51;;;;;;;5.13;3.77;;;15.10;55.10;;;;;;6126483;23;20173;-68
2023/04/19 01:20:16;;;;;;;4.23;3.67;;;15.10;55.10;;;;;;6126420;23;20722;-68
2023/04/19 01:22:42;;;;;;;5.53;4.50;;;15.10;55.10;;;;;;6126425;23;20202;-68
2023/04/19 01:25:09;;;;;;;4.50;3.00;;;15.10;55.00;;;;;;6126548;23;20224;-68
2023/04/19 01:27:34;;;;;;;4.23;3.73;;;15.10;55.00;;;;;;6126797;23;20626;-68
2023/04/19 01:30:00;;;;;;;4.00;3.03;;;15.00;55.00;;;;;;6126597;23;20372;-68
2023/04/19 01:32:25;;;;;;;4.77;3.87;;;15.00;55.00;;;;;;6126451;23;20153;-68
2023/04/19 01:34:51;;;;;;;3.50;3.07;;;15.10;55.00;;;;;;6126642;23;20176;-68
2023/04/19 01:37:17;;;;;;;4.50;3.60;;;15.10;55.00;;;;;;6126578;23;20185;-68
2023/04/19 01:39:43;;;;;;;5.00;3.57;;;15.00;54.90;;;;;;6126230;23;20464;-69
2023/04/19 01:42:08;;;;;;;4.23;3.83;;;15.00;54.90;;;;;;6126024;23;20153;-69
2023/04/19 01:44:34;;;;;;;3.83;3.47;;;15.00;54.90;;;;;;6126073;23;20185;-70
2023/04/19 01:46:59;;;;;;;4.03;3.60;;;15.00;54.90;;;;;;6101995;23;20157;-70
2023/04/19 01:49:25;;;;;;;3.70;3.30;;;15.00;54.90;;;;;;6127841;23;20208;-70
2023/04/19 01:51:50;;;;;;;3.53;2.73;;;15.10;55.00;;;;;;6128185;23;20578;-70
2023/04/19 01:54:16;;;;;;;4.33;3.70;;;15.00;54.90;;;;;;6128094;23;20188;-69
2023/04/19 01:56:42;;;;;;;5.77;4.10;;;15.00;54.90;;;;;;6128230;23;20200;-70
2023/04/19 01:59:07;;;;;;;5.10;3.93;;;15.00;54.90;;;;;;6127851;23;20665;-70
2023/04/19 02:01:33;;;;;;;4.30;3.50;;;15.00;54.90;;;;;;6127860;23;20723;-69
2023/04/19 02:03:59;;;;;;;4.70;3.90;;;15.00;54.90;;;;;;6127599;23;20169;-70
2023/04/19 02:06:25;;;;;;;3.80;3.40;;;15.00;54.90;;;;;;6101807;23;20225;-70
2023/04/19 02:08:51;;;;;;;4.30;3.70;;;15.00;54.90;;;;;;6127728;23;20153;-70
2023/04/19 02:11:16;;;;;;;5.83;4.53;;;15.00;54.90;;;;;;6127762;23;20468;-70
2023/04/19 02:13:42;;;;;;;3.70;3.40;;;15.00;54.90;;;;;;6127672;23;20739;-70
2023/04/19 02:16:09;;;;;;;3.57;3.27;;;15.00;54.90;;;;;;6127568;23;20626;-70
2023/04/19 02:18:39;;;;;;;4.87;3.60;;;15.00;54.80;;;;;;6127744;23;20149;-69
2023/04/19 02:21:05;;;;;;;4.03;3.33;;;15.00;54.80;;;;;;6127808;23;20469;-70
2023/04/19 02:23:31;;;;;;;6.33;3.80;;;15.00;54.80;;;;;;6127559;23;20399;-69
2023/04/19 02:25:57;;;;;;;3.63;3.33;;;15.00;54.80;;;;;;6127731;23;20453;-71
2023/04/19 02:28:23;;;;;;;5.60;3.80;;;15.00;54.80;;;;;;6127546;23;20172;-70
2023/04/19 02:30:48;;;;;;;6.23;3.70;;;15.00;54.80;;;;;;6127575;23;20392;-69
2023/04/19 02:33:14;;;;;;;4.30;3.70;;;15.00;54.80;;;;;;6127513;23;20172;-70
2023/04/19 02:35:40;;;;;;;4.63;4.13;;;15.00;54.80;;;;;;6101524;23;20228;-69
2023/04/19 02:38:06;;;;;;;4.00;3.10;;;15.00;54.80;;;;;;6127304;23;20420;-70
2023/04/19 02:40:31;;;;;;;4.60;3.73;;;15.00;54.80;;;;;;6127686;23;20149;-69
2023/04/19 02:42:57;;;;;;;4.13;3.50;;;15.00;54.80;;;;;;6127183;23;20169;-70
2023/04/19 02:45:23;;;;;;;4.33;3.73;;;15.00;54.80;;;;;;6127482;23;20629;-70
2023/04/19 02:47:48;;;;;;;3.90;3.50;;;15.00;54.80;;;;;;6127356;23;20153;-70
2023/04/19 02:50:15;;;;;;;4.57;4.17;;;15.00;54.80;;;;;;6127701;23;20232;-69
2023/04/19 02:52:41;;;;;;;5.20;4.10;;;15.00;54.80;;;;;;6127273;23;20160;-70
2023/04/19 02:55:07;;;;;;;3.63;3.33;;;15.00;54.80;;;;;;6127127;23;20374;-70
2023/04/19 02:57:33;;;;;;;5.60;3.67;;;15.00;54.80;;;;;;6127068;23;20177;-71
2023/04/19 02:59:58;;;;;;;4.80;3.43;;;15.00;54.70;;;;;;6127229;23;20464;-70
2023/04/19 03:02:26;;;;;;;3.90;2.97;;;15.00;54.70;;;;;;6127276;23;20156;-70
2023/04/19 03:04:53;;;;;;;3.50;3.20;;;15.00;54.70;;;;;;6127065;23;20212;-69
2023/04/19 03:07:18;;;;;;;3.93;3.43;;;15.00;54.70;;;;;;6127139;23;20401;-70
2023/04/19 03:09:44;;;;;;;3.80;3.40;;;15.00;54.70;;;;;;6127101;23;20739;-69
2023/04/19 03:12:10;;;;;;;3.43;3.10;;;15.00;54.70;;;;;;6127279;23;20231;-70
2023/04/19 03:14:36;;;;;;;3.63;3.13;;;15.00;54.70;;;;;;6101118;23;20563;-70
2023/04/19 03:17:02;;;;;;;4.00;3.60;;;15.00;54.70;;;;;;6101082;23;20479;-69
2023/04/19 03:19:28;;;;;;;4.10;3.70;;;15.00;54.70;;;;;;6127293;23;20787;-70
2023/04/19 03:21:53;;;;;;;4.03;3.13;;;15.00;54.70;;;;;;6127018;23;20702;-70
2023/04/19 03:24:19;;;;;;;4.87;3.80;;;15.00;54.70;;;;;;6126552;23;20688;-68
2023/04/19 03:26:45;;;;;;;4.57;3.80;;;15.00;54.70;;;;;;6126762;23;20232;-68
2023/04/19 03:29:13;;;;;;;4.23;3.60;;;15.00;54.70;;;;;;6126838;23;20200;-68
2023/04/19 03:31:38;;;;;;;2.83;2.63;;;15.00;54.70;;;;;;6126512;23;20955;-71
2023/04/19 03:34:04;;;;;;;4.53;3.60;;;15.00;54.70;;;;;;6126695;23;20413;-72
2023/04/19 03:36:29;;;;;;;4.47;4.07;;;15.00;54.70;;;;;;6126337;23;20184;-72
2023/04/19 03:38:55;;;;;;;3.70;3.10;;;15.00;54.70;;;;;;6126476;23;20149;-72
2023/04/19 03:41:25;;;;;;;4.00;3.33;;;15.00;54.70;;;;;;6126641;23;20173;-71
2023/04/19 03:43:51;;;;;;;4.33;3.63;;;15.00;54.70;;;;;;6126983;23;20271;-70
2023/04/19 03:46:17;;;;;;;4.70;3.40;;;15.00;54.70;;;;;;6126820;23;20408;-67
2023/04/19 03:48:42;;;;;;;6.07;3.90;;;15.00;54.60;;;;;;6127076;23;20164;-67
2023/04/19 03:51:08;;;;;;;3.97;3.03;;;15.00;54.70;;;;;;6126771;23;20163;-71
2023/04/19 03:53:34;;;;;;;4.33;3.40;;;15.00;54.60;;;;;;6126321;23;20236;-72
2023/04/19 03:56:00;;;;;;;5.87;3.30;;;15.00;54.60;;;;;;6126306;23;20228;-72
2023/04/19 03:58:26;;;;;;;4.93;3.77;;;15.00;54.60;;;;;;6126769;23;20417;-71
2023/04/19 04:00:52;;;;;;;3.63;3.23;;;14.90;54.60;;;;;;6126669;23;20580;-72
2023/04/19 04:03:18;;;;;;;4.37;2.90;;;14.90;54.60;;;;;;6126489;23;20177;-70
2023/04/19 04:05:44;;;;;;;4.20;3.30;;;15.00;54.60;;;;;;6100405;23;20459;-70
2023/04/19 04:08:09;;;;;;;3.30;3.00;;;14.90;54.60;;;;;;6126019;23;20160;-69
2023/04/19 04:10:35;;;;;;;3.40;3.10;;;15.00;54.60;;;;;;6126380;23;20602;-70
2023/04/19 04:13:00;;;;;;;4.30;3.60;;;14.90;54.50;;;;;;6126504;23;20240;-70
2023/04/19 04:15:26;;;;;;;3.90;3.27;;;14.90;54.70;;;;;;6126312;23;20160;-70
2023/04/19 04:17:52;;;;;;;4.40;3.37;;;15.00;54.60;;;;;;6126286;23;20565;-70
2023/04/19 04:20:18;;;;;;;4.10;3.13;;;15.00;54.60;;;;;;6126320;23;20495;-70
2023/04/19 04:22:45;;;;;;;4.07;3.10;;;15.00;54.60;;;;;;6126364;23;20148;-69
2023/04/19 04:25:11;;;;;;;3.43;3.13;;;14.90;54.60;;;;;;6126210;23;20146;-69
2023/04/19 04:27:38;;;;;;;4.50;3.70;;;15.00;54.60;;;;;;6126148;23;20381;-69
2023/04/19 04:30:05;;;;;;;3.33;2.50;;;15.00;54.60;;;;;;6126199;23;20377;-69
2023/04/19 04:32:34;;;;;;;3.97;3.47;;;14.90;54.50;;;;;;6126180;23;20847;-69
2023/04/19 04:35:00;;;;;;;3.37;3.07;;;14.90;54.50;;;;;;6125786;23;20400;-69
2023/04/19 04:37:26;;;;;;;3.60;3.27;;;15.00;54.60;;;;;;6126358;23;20421;-70
2023/04/19 04:39:52;;;;;;;4.17;3.60;;;14.90;54.50;;;;;;6126607;23;20383;-70
2023/04/19 04:42:20;;;;;;;4.20;3.40;;;14.90;54.50;;;;;;6126422;23;20176;-70
2023/04/19 04:44:46;;;;;;;3.73;3.10;;;14.90;54.50;;;;;;6125968;23;20529;-70
2023/04/19 04:47:14;;;;;;;3.33;2.80;;;15.00;54.60;;;;;;6126155;23;20404;-69
2023/04/19 04:49:40;;;;;;;3.20;2.90;;;14.90;54.50;;;;;;6126235;23;20156;-69
2023/04/19 04:52:07;;;;;;;4.13;3.30;;;14.90;54.50;;;;;;6126009;23;20715;-70
2023/04/19 04:54:33;;;;;;;3.50;3.20;;;14.90;54.50;;;;;;6125880;23;20247;-70
2023/04/19 04:56:59;;;;;;;3.87;3.33;;;14.90;54.50;;;;;;6100006;23;20432;-70
2023/04/19 04:59:25;;;;;;;3.17;2.80;;;14.90;54.50;;;;;;6126030;23;20153;-70
2023/04/19 05:01:51;;;;;;;4.37;3.57;;;14.90;54.50;;;;;;6124274;23;20377;-70
2023/04/19 05:04:17;;;;;;;4.23;3.47;;;14.90;54.50;;;;;;6125748;23;20448;-69
2023/04/19 05:06:43;;;;;;;3.63;3.10;;;14.90;54.50;;;;;;6100088;23;20164;-70
2023/04/19 05:09:09;;;;;;;3.67;3.37;;;14.90;54.40;;;;;;6125730;23;20401;-70
2023/04/19 05:11:35;;;;;;;3.20;2.90;;;14.90;54.40;;;;;;6126097;23;20160;-71
2023/04/19 05:14:01;;;;;;;4.57;3.13;;;14.90;54.40;;;;;;6125719;23;20400;-70
2023/04/19 05:16:27;;;;;;;4.13;3.73;;;14.90;54.50;;;;;;6125714;23;20487;-70
2023/04/19 05:18:53;;;;;;;3.43;2.90;;;14.90;54.50;;;;;;6126307;23;20377;-73
2023/04/19 05:21:18;;;;;;;3.80;3.17;;;14.90;54.50;;;;;;6127649;23;20160;-71
2023/04/19 05:23:44;;;;;;;5.73;3.97;;;14.90;55.00;;;;;;6127718;23;20228;-68
2023/04/19 05:26:14;;;;;;;3.90;3.37;;;14.90;54.50;;;;;;6128089;23;20159;-68
2023/04/19 05:28:40;;;;;;;3.77;3.27;;;14.90;54.50;;;;;;6127964;23;20157;-68
2023/04/19 05:31:07;;;;;;;3.50;3.17;;;14.90;54.40;;;;;;6127766;23;20660;-68
2023/04/19 05:33:33;;;;;;;3.97;3.40;;;14.90;54.40;;;;;;6128007;23;20397;-68
2023/04/19 05:35:58;;;;;;;4.07;2.80;;;14.90;54.40;;;;;;6127654;23;20714;-68
2023/04/19 05:38:24;;;;;;;3.30;3.00;;;14.90;54.40;;;;;;6101824;23;20153;-68
2023/04/19 05:40:50;;;;;;;3.00;2.73;;;14.90;54.40;;;;;;6127839;23;20595;-67
2023/04/19 05:43:15;;;;;;;4.13;3.50;;;15.00;54.50;;;;;;6101216;23;20193;-71
2023/04/19 05:45:41;;;;;;;4.30;3.90;;;15.00;54.50;;;;;;6127601;23;20557;-72
2023/04/19 05:48:07;;;;;;;3.37;2.83;;;14.90;54.40;;;;;;6101379;23;20161;-72
2023/04/19 05:50:33;;;;;;;3.80;3.40;;;14.90;54.40;;;;;;6127259;23;20219;-72
2023/04/19 05:52:59;;;;;;;3.47;3.00;;;14.90;54.40;;;;;;6127431;23;20212;-72
2023/04/19 05:55:24;;;;;;;6.07;3.13;;;14.90;54.40;;;;;;6127400;23;20408;-71
2023/04/19 05:57:50;;;;;;;3.90;2.97;;;14.90;54.40;;;;;;6127216;23;20180;-71
2023/04/19 06:00:16;;;;;;;3.07;2.77;;;14.90;54.40;;;;;;6127381;23;20149;-72
2023/04/19 06:02:43;;;;;;;3.37;3.07;;;14.90;54.40;;;;;;6127560;23;20149;-68
2023/04/19 06:05:09;;;;;;;3.60;3.20;;;14.90;54.40;;;;;;6101908;23;20428;-68
2023/04/19 06:07:34;;;;;;;3.47;3.10;;;14.90;54.40;;;;;;6127765;23;20373;-68
2023/04/19 06:10:00;;;;;;;4.70;3.40;;;14.90;54.40;;;;;;6127740;23;20149;-68
2023/04/19 06:12:26;;;;;;;4.07;3.67;;;14.90;54.40;;;;;;6127712;23;20224;-68
2023/04/19 06:14:51;;;;;;;3.57;3.00;;;14.90;54.50;;;;;;6127378;23;20169;-68
2023/04/19 06:17:22;;;;;;;5.47;3.57;;;14.90;54.50;;;;;;6101431;23;20185;-67
2023/04/19 06:19:48;;;;;;;3.53;3.23;;;14.90;54.40;;;;;;6127653;23;20572;-67
2023/04/19 06:22:13;;;;;;;4.20;3.80;;;14.90;54.40;;;;;;6127487;23;20452;-67
2023/04/19 06:24:39;;;;;;;3.97;3.57;;;14.90;54.40;;;;;;6101411;23;20619;-67
2023/04/19 06:27:04;;;;;;;3.37;3.07;;;14.90;54.50;;;;;;6127375;23;20153;-67
2023/04/19 06:29:30;;;;;;;5.30;3.30;;;14.90;54.40;;;;;;6127462;23;20153;-70
2023/04/19 06:31:56;;;;;;;4.43;3.53;;;14.90;54.40;;;;;;6126740;23;20149;-70
2023/04/19 06:34:21;;;;;;;3.77;3.20;;;14.90;54.70;;;;;;6100830;23;20620;-70
2023/04/19 06:36:47;;;;;;;3.83;3.27;;;14.90;54.40;;;;;;6126934;23;20212;-69
2023/04/19 06:39:14;;;;;;;3.37;2.93;;;14.90;54.40;;;;;;6127303;23;20145;-69
2023/04/19 06:41:39;;;;;;;4.13;3.07;;;14.90;54.40;;;;;;6126982;23;20145;-67
2023/04/19 06:44:05;;;;;;;3.50;2.77;;;14.90;54.40;;;;;;6126911;23;20436;-68
2023/04/19 06:46:30;;;;;;;3.40;3.03;;;14.90;54.40;;;;;;6101251;23;20240;-67
2023/04/19 06:48:56;;;;;;;3.07;2.77;;;14.90;54.40;;;;;;6126981;23;20175;-66
2023/04/19 06:51:21;;;;;;;3.60;3.20;;;14.90;54.40;;;;;;6101059;23;20246;-69
2023/04/19 06:53:49;;;;;;;3.13;2.83;;;14.90;54.40;;;;;;6127037;23;20199;-67
2023/04/19 06:56:15;;;;;;;4.13;3.60;;;14.90;54.40;;;;;;6126995;23;20177;-67
2023/04/19 06:58:40;;;;;;;3.43;3.13;;;14.90;54.40;;;;;;6127263;23;20862;-67
2023/04/19 07:01:06;;;;;;;3.57;3.17;;;14.90;54.40;;;;;;6126888;23;20153;-67
2023/04/19 07:03:32;;;;;;;3.13;2.73;;;14.90;54.40;;;;;;6126859;23;20169;-67
2023/04/19 07:05:57;;;;;;;3.80;2.80;;;14.90;54.40;;;;;;6127294;23;20187;-67
2023/04/19 07:08:24;;;;;;;3.93;3.40;;;14.90;54.40;;;;;;6127173;23;20232;-67
2023/04/19 07:10:49;;;;;;;2.90;2.57;;;14.90;54.40;;;;;;6127188;23;20164;-68
2023/04/19 07:13:15;;;;;;;3.63;3.23;;;14.90;54.40;;;;;;6127160;23;20899;-67
2023/04/19 07:15:42;;;;;;;3.93;3.20;;;14.90;54.40;;;;;;6127212;23;20173;-70
2023/04/19 07:18:09;;;;;;;3.00;2.73;;;14.90;54.40;;;;;;6126482;23;20427;-69
2023/04/19 07:20:35;;;;;;;4.10;3.10;;;14.90;54.40;;;;;;6100636;23;20157;-69
2023/04/19 07:23:01;;;;;;;3.73;3.23;;;14.90;54.40;;;;;;6126715;23;20871;-68
2023/04/19 07:25:26;;;;;;;3.20;2.67;;;14.90;54.40;;;;;;6127039;23;20524;-68
2023/04/19 07:27:53;;;;;;;3.30;3.00;;;14.90;54.40;;;;;;6126839;23;20153;-67
2023/04/19 07:30:19;;;;;;;5.10;2.90;;;14.90;54.40;;;;;;6126642;23;20216;-71
2023/04/19 07:32:45;;;;;;;3.40;2.67;;;14.90;54.40;;;;;;6100630;23;20389;-68
2023/04/19 07:35:11;;;;;;;3.07;2.77;;;15.00;54.40;;;;;;6100644;23;20203;-67
2023/04/19 07:37:41;;;;;;;2.63;2.40;;;14.90;54.40;;;;;;6126423;23;20417;-67
2023/04/19 07:40:07;;;;;;;3.93;3.47;;;14.90;54.40;;;;;;6126488;23;20208;-67
2023/04/19 07:42:32;;;;;;;3.30;2.97;;;14.90;54.40;;;;;;6100345;23;20512;-72
2023/04/19 07:45:00;;;;;;;3.30;3.00;;;14.90;54.30;;;;;;6126189;23;20421;-67
2023/04/19 07:47:26;;;;;;;3.60;3.30;;;15.00;54.40;;;;;;6126404;23;20153;-72
2023/04/19 07:49:52;;;;;;;2.50;2.30;;;14.90;54.40;;;;;;6100588;23;20389;-68
2023/04/19 07:52:18;;;;;;;2.77;2.57;;;15.00;54.40;;;;;;6126790;23;20604;-68
2023/04/19 07:54:43;;;;;;;3.00;2.77;;;15.00;54.40;;;;;;6126385;23;20405;-68
2023/04/19 07:57:09;;;;;;;4.17;3.53;;;15.00;54.40;;;;;;6126549;23;20177;-68
2023/04/19 07:59:34;;;;;;;3.50;3.20;;;14.90;54.40;;;;;;6126767;23;20224;-69
2023/04/19 08:02:00;;;;;;;3.60;3.07;;;14.90;54.40;;;;;;6126726;23;20158;-69
2023/04/19 08:04:26;;;;;;;3.50;3.20;;;14.90;54.40;;;;;;6100578;23;20177;-69
2023/04/19 08:06:51;;;;;;;3.10;2.80;;;15.00;54.50;;;;;;6126738;23;20157;-69
2023/04/19 08:09:18;;;;;;;3.63;3.10;;;14.90;54.40;;;;;;6126813;23;20216;-69
2023/04/19 08:11:43;;;;;;;3.40;2.90;;;15.00;54.50;;;;;;6126625;23;20575;-69
2023/04/19 08:14:09;;;;;;;3.50;2.70;;;14.90;54.40;;;;;;6126526;23;20399;-69
2023/04/19 08:16:35;;;;;;;2.80;2.50;;;14.90;54.40;;;;;;6126414;23;20187;-69
2023/04/19 08:19:01;;;;;;;4.17;3.30;;;15.00;54.50;;;;;;6126349;23;20183;-69
2023/04/19 08:21:26;;;;;;;3.17;2.87;;;14.90;54.40;;;;;;6126568;23;20852;-72
2023/04/19 08:23:52;;;;;;;3.00;2.63;;;15.00;54.50;;;;;;6100514;23;20177;-72
2023/04/19 08:26:18;;;;;;;2.70;2.50;;;15.00;54.40;;;;;;6126365;23;20149;-72
2023/04/19 08:28:43;;;;;;;3.63;2.80;;;15.00;54.50;;;;;;6126456;23;20153;-72
2023/04/19 08:31:09;;;;;;;3.17;2.87;;;15.00;54.50;;;;;;6126356;23;20156;-72
2023/04/19 08:33:35;;;;;;;4.50;2.83;;;15.00;54.50;;;;;;6126232;23;20203;-72
2023/04/19 08:36:00;;;;;;;3.43;2.83;;;15.00;54.50;;;;;;6126055;23;20159;-71
2023/04/19 08:38:26;;;;;;;3.70;3.20;;;15.00;54.60;;;;;;6126557;23;20141;-72
2023/04/19 08:40:56;;;;;;;3.70;3.30;;;15.00;54.50;;;;;;6126678;23;20299;-72
2023/04/19 08:43:24;;;;;;;3.80;3.13;;;15.00;54.60;;;;;;6125859;23;20255;-71
2023/04/19 08:45:50;;;;;;;3.10;2.50;;;15.00;54.60;;;;;;6126160;23;20376;-67
2023/04/19 08:48:17;;;;;;;4.13;3.00;;;15.00;54.50;;;;;;6100447;23;20459;-69
2023/04/19 08:50:45;;;;;;;5.40;3.03;;;15.10;55.10;;;;;;6126975;23;20706;-70
2023/04/19 08:53:11;;;;;;;4.73;3.23;;;15.10;54.60;;;;;;6126009;23;20392;-69
2023/04/19 08:55:41;;;;;;;3.00;2.70;;;15.10;54.50;;;;;;6126320;23;20380;-71
2023/04/19 08:58:07;;;;;;;3.70;3.30;;;15.10;54.50;;;;;;6125987;23;20688;-71
2023/04/19 09:00:36;;;;;;;3.40;3.07;;;15.00;54.50;;;;;;6126010;23;20460;-69
2023/04/19 09:03:02;;;;;;;3.80;3.40;;;15.10;54.50;;;;;;6125996;23;20165;-69
2023/04/19 09:05:28;;;;;;;5.60;2.97;;;15.10;54.60;;;;;;6126182;23;20404;-69
2023/04/19 09:07:53;;;;;;;3.70;3.10;;;15.10;54.60;;;;;;6125957;23;20157;-67
2023/04/19 09:10:20;;;;;;;2.80;2.50;;;15.10;54.60;;;;;;6126040;23;20784;-68
2023/04/19 09:13:03;;;;;;;3.20;2.70;;;15.10;54.50;;;;;;6125979;23;20211;-67
2023/04/19 09:15:40;;;;;;;3.40;2.67;;;15.10;54.50;;;;;;6125860;23;20380;-67
2023/04/19 09:18:08;;;;;;;3.77;3.33;;;15.10;54.50;;;;;;6126060;23;20413;-67
2023/04/19 09:20:45;;;;;;;3.50;3.03;;;15.10;54.50;;;;;;6126012;23;20835;-68
2023/04/19 09:23:13;;;;;;;3.67;3.20;;;15.20;54.50;;;;;;6099992;23;20422;-69
2023/04/19 09:25:49;;;;;;;4.30;2.80;;;15.20;54.50;;;;;;6125684;23;20379;-69
2023/04/19 09:28:15;;;;;;;2.63;2.43;;;15.20;54.40;;;;;;6125656;23;20376;-70
2023/04/19 09:30:41;;;;;;;3.57;3.23;;;15.20;54.40;;;;;;6125320;23;20381;-69
2023/04/19 09:33:07;;;;;;;3.00;2.80;;;15.20;54.40;;;;;;6125231;23;20211;-69
2023/04/19 09:35:43;;;;;;;3.50;3.13;;;15.20;54.40;;;;;;6125319;23;20220;-71
2023/04/19 09:38:10;;;;;;;3.20;2.27;;;15.30;54.40;;;;;;6125480;23;20439;-71
2023/04/19 09:40:37;;;;;;;4.20;2.97;;;15.30;54.40;;;;;;6125276;23;20377;-72
2023/04/19 09:43:03;;;;;;;3.20;3.00;;;15.30;54.40;;;;;;6125179;23;20515;-71
2023/04/19 09:45:42;;;;;;;4.20;3.47;;;15.30;54.40;;;;;;6125664;23;20362;-71
2023/04/19 09:48:09;;;;;;;4.00;3.37;;;15.30;54.30;;;;;;6125865;23;20137;-71
2023/04/19 09:50:36;;;;;;;3.37;2.90;;;15.30;54.40;;;;;;6125293;23;20373;-71
2023/04/19 09:53:02;;;;;;;3.73;2.93;;;15.30;54.40;;;;;;6125291;23;20397;-71
2023/04/19 09:55:29;;;;;;;5.80;2.80;;;15.30;54.40;;;;;;6125295;23;20381;-69
2023/04/19 09:57:55;;;;;;;3.43;2.70;;;15.30;54.50;;;;;;6125481;23;20728;-69
2023/04/19 10:00:21;;;;;;;2.90;2.70;;;15.30;54.40;;;;;;6125575;23;20427;-68
2023/04/19 10:02:54;;;;;;;4.60;4.20;;;15.30;54.50;;;;;;6125701;23;20161;-69
2023/04/19 10:05:24;;;;;;;3.83;2.90;;;15.40;54.60;;;;;;6125364;23;20360;-68
2023/04/19 10:07:55;;;;;;;3.70;3.00;;;15.40;54.60;;;;;;6127321;23;20377;-68
2023/04/19 10:10:21;;;;;;;3.47;2.97;;;15.40;54.60;;;;;;6054873;23;20381;-69
2023/04/19 10:12:50;;;;;;;2.70;2.40;;;15.40;54.70;;;;;;6127038;23;20885;-68
2023/04/19 10:15:16;;;;;;;2.80;2.60;;;15.40;54.70;;;;;;6127504;23;20160;-68
2023/04/19 10:17:42;;;;;;;5.90;3.50;;;15.40;54.70;;;;;;6127003;23;20416;-69
2023/04/19 10:20:16;;;;;;;3.23;2.60;;;15.50;54.80;;;;;;6127288;23;20802;-68
2023/04/19 10:22:41;;;;;;;3.57;3.07;;;15.50;54.80;;;;;;6127034;23;20436;-68
2023/04/19 10:25:16;;;;;;;3.50;2.67;;;15.50;54.80;;;;;;6127152;23;20416;-68
2023/04/19 10:27:45;;;;;;;3.33;2.90;;;15.50;54.80;;;;;;6100919;23;20164;-72
2023/04/19 10:30:25;;;;;;;4.13;3.73;;;15.50;54.90;;;;;;6126804;23;20376;-71
2023/04/19 10:33:01;;;;;;;4.37;3.23;;;15.50;54.90;;;;;;6127468;23;20357;-71
2023/04/19 10:35:36;;;;;;;3.77;3.40;;;15.60;55.00;;;;;;6127093;23;20671;-72
2023/04/19 10:38:15;;;;;;;3.40;3.10;;;15.60;55.00;;;;;;6126775;23;20731;-71
2023/04/19 10:41:00;;;;;;;2.80;2.40;;;15.60;55.10;;;;;;6125143;23;20383;-71
2023/04/19 10:43:33;;;;;;;3.27;2.97;;;15.60;55.10;;;;;;6126737;23;20662;-71
2023/04/19 10:46:35;;;;;;;3.20;2.60;;;15.60;55.10;;;;;;6127086;23;20415;-71
2023/04/19 10:49:02;;;;;;;3.50;3.10;;;15.70;55.10;;;;;;6127006;23;20361;-71
2023/04/19 10:51:35;;;;;;;3.90;2.63;;;15.70;55.20;;;;;;6126678;23;20705;-71
2023/04/19 10:54:01;;;;;;;4.20;3.57;;;15.70;55.20;;;;;;6126507;23;20392;-71
2023/04/19 10:56:33;;;;;;;3.23;2.70;;;15.70;55.20;;;;;;6126848;23;20902;-67
2023/04/19 10:59:04;;;;;;;3.70;2.70;;;15.80;55.30;;;;;;6126980;23;20392;-67
2023/04/19 11:01:44;;;;;;;3.37;2.90;;;15.80;55.30;;;;;;6126939;23;20387;-67
2023/04/19 11:04:11;;;;;;;3.17;2.87;;;15.80;55.30;;;;;;6127170;23;20859;-67
2023/04/19 11:06:56;;;;;;;2.80;2.60;;;15.80;55.30;;;;;;6126786;23;20377;-67
2023/04/19 11:09:29;;;;;;;3.53;2.50;;;15.80;55.30;;;;;;6126972;23;20361;-67
2023/04/19 11:12:07;;;;;;;3.20;2.50;;;15.80;55.30;;;;;;6126627;23;20464;-68
2023/04/19 11:14:36;;;;;;;3.50;2.90;;;15.90;55.30;;;;;;6126528;23;20455;-68
2023/04/19 11:17:12;;;;;;;3.03;2.60;;;15.90;55.30;;;;;;6125533;23;20425;-67
2023/04/19 11:19:38;;;;;;;3.17;2.80;;;15.90;55.20;;;;;;6126845;23;20362;-67
2023/04/19 11:22:03;;;;;;;2.77;2.47;;;15.90;55.20;;;;;;6127003;23;20455;-67
2023/04/19 11:24:29;;;;;;;5.50;2.93;;;16.00;55.30;;;;;;6126771;23;20612;-67
2023/04/19 11:26:56;;;;;;;3.90;2.70;;;16.00;55.30;;;;;;6126430;23;20153;-68
2023/04/19 11:29:22;;;;;;;4.57;2.80;;;16.00;55.30;;;;;;6126683;23;20157;-68
2023/04/19 11:31:47;;;;;;;2.73;2.47;;;16.00;55.20;;;;;;6126353;23;20374;-67
2023/04/19 11:34:13;;;;;;;3.37;3.00;;;16.10;55.30;;;;;;6126368;23;20220;-68
2023/04/19 11:36:50;;;;;;;3.10;2.80;;;16.00;55.20;;;;;;6126830;23;20184;-67
2023/04/19 11:39:15;;;;;;;3.20;2.80;;;16.10;55.30;;;;;;6101079;23;20467;-71
2023/04/19 11:41:41;;;;;;;2.97;2.77;;;16.10;55.30;;;;;;6125988;23;20408;-70
2023/04/19 11:44:19;;;;;;;3.43;2.50;;;16.10;55.30;;;;;;6125855;23;20654;-69
2023/04/19 11:46:57;;;;;;;3.30;3.00;;;16.10;55.30;;;;;;6125943;23;20133;-69
2023/04/19 11:49:31;;;;;;;2.70;2.40;;;16.20;55.30;;;;;;6124443;23;20400;-69
2023/04/19 11:52:01;;;;;;;3.00;2.70;;;16.20;55.30;;;;;;6126256;23;20369;-69
2023/04/19 11:54:27;;;;;;;2.90;2.40;;;16.20;55.30;;;;;;6100318;23;20891;-69
2023/04/19 11:57:06;;;;;;;5.60;2.00;;;16.20;55.20;;;;;;6126640;23;20427;-72
2023/04/19 11:59:34;;;;;;;3.37;2.93;;;15.90;40.00;;;;;;6126551;23;20579;-68
2023/04/19 12:02:06;;;;;;;2.90;1.70;;;15.70;39.70;;;;;;6126220;23;20374;-68
2023/04/19 12:04:32;;;;;;;2.17;1.70;;;15.70;40.20;;;;;;6125884;23;20385;-68
2023/04/19 12:06:58;;;;;;;4.37;2.10;;;15.70;43.20;;;;;;6126162;23;20384;-68
2023/04/19 12:09:24;;;;;;;2.53;2.27;;;15.70;42.90;;;;;;6099699;23;20161;-68
2023/04/19 12:11:50;;;;;;;4.37;2.30;;;15.70;42.90;;;;;;6125886;23;20428;-68
2023/04/19 12:14:21;;;;;;;1.57;1.47;;;15.70;43.00;;;;;;6125657;23;20400;-68
2023/04/19 12:17:22;;;;;;;2.60;1.73;;;15.70;43.40;;;;;;6126239;23;20173;-67
2023/04/19 12:19:48;;;;;;;1.93;1.73;;;15.80;43.90;;;;;;6008462;23;20393;-68
2023/04/19 12:22:16;;;;;;;2.90;2.20;;;15.80;44.40;;;;;;6101354;23;20385;-68
2023/04/19 12:24:42;;;;;;;3.40;2.23;;;15.80;44.80;;;;;;6125750;23;20166;-67
2023/04/19 12:27:08;;;;;;;5.87;2.40;;;15.80;45.20;;;;;;6125681;23;20711;-68
2023/04/19 12:29:35;;;;;;;2.73;2.30;;;15.90;45.60;;;;;;6125475;23;20719;-68
2023/04/19 12:32:01;;;;;;;2.30;2.10;;;15.90;45.80;;;;;;6125976;23;20396;-68
2023/04/19 12:34:27;;;;;;;2.90;2.10;;;16.00;46.20;;;;;;6125777;23;20707;-68
2023/04/19 12:36:53;;;;;;;2.90;2.30;;;16.00;46.40;;;;;;6125536;23;20448;-68
2023/04/19 12:39:18;;;;;;;2.47;2.03;;;16.00;46.60;;;;;;6125618;23;20380;-67
2023/04/19 12:41:47;;;;;;;4.00;2.67;;;16.10;46.80;;;;;;6125731;23;20171;-68
2023/04/19 12:44:12;;;;;;;2.97;2.67;;;16.10;47.00;;;;;;6125484;23;20188;-69
2023/04/19 12:46:38;;;;;;;5.07;2.60;;;16.10;47.10;;;;;;6125690;23;20387;-69
2023/04/19 12:49:03;;;;;;;2.43;2.20;;;16.20;47.30;;;;;;6125865;23;20149;-69